F00

Jones Field Airport

Bonham, Texas, USA
METAR KF00 222015Z AUTO 27007KT 10SM CLR 42/14 A2986 RMK AO2 T04160142
Observed Flight Rules
Jul-22 @ 20:15 UTC (7 minutes ago) Visual Flight Rules
Wind Visibility Clouds
270° at 7 knots 10 miles
  • Clear skies
Temperatures Readings
Current 42°C / 108°F
Dewpoint 14°C / 57°F
Humidity 19%
Altimeter 29.86" Hg
Pressure 1011 hPa
Elevation 188
METAR KF00 222015Z AUTO 27007KT 10SM CLR 42/14 A2986 RMK AO2 T04160142
Observed Flight Rules
Jul-22 @ 20:15 UTC
(7 minutes ago)
VFR
Wind Visibility
270° at 7 knots 10 miles
Clouds
  • Clear skies
Temperature Dewpoint
42°C / 108°F 14°C / 57°F
Humidity Altimeter Pressure
19% 29.86" Hg 1011 hPa